createdAt,value
2022-12-18T00:01:32.586Z,17.80
2022-12-18T00:03:59.788Z,17.67
2022-12-18T00:06:27.963Z,18.45
2022-12-18T00:08:55.632Z,17.33
2022-12-18T00:11:23.731Z,19.15
2022-12-18T00:13:50.495Z,18.38
2022-12-18T00:16:21.338Z,18.02
2022-12-18T00:18:48.749Z,17.30
2022-12-18T00:21:15.727Z,24.90
2022-12-18T00:23:43.618Z,19.80
2022-12-18T00:26:20.215Z,18.05
2022-12-18T00:28:46.906Z,17.15
2022-12-18T00:31:16.051Z,16.83
2022-12-18T00:33:43.100Z,17.88
2022-12-18T00:36:11.899Z,15.85
2022-12-18T00:38:38.707Z,17.02
2022-12-18T00:41:06.065Z,15.90
2022-12-18T00:43:36.212Z,16.38
2022-12-18T00:46:03.330Z,16.60
2022-12-18T00:48:30.113Z,18.13
2022-12-18T00:50:56.861Z,16.52
2022-12-18T00:53:23.450Z,16.35
2022-12-18T00:55:50.096Z,16.10
2022-12-18T00:58:17.306Z,15.18
2022-12-18T01:00:44.285Z,14.75
2022-12-18T01:03:13.764Z,15.05
2022-12-18T01:05:43.248Z,13.57
2022-12-18T01:08:09.905Z,13.80
2022-12-18T01:10:36.687Z,14.27
2022-12-18T01:13:03.695Z,14.27
2022-12-18T01:15:30.365Z,14.90
2022-12-18T01:17:57.000Z,14.07
2022-12-18T01:20:23.815Z,14.38
2022-12-18T01:22:50.632Z,13.13
2022-12-18T01:25:17.313Z,13.18
2022-12-18T01:27:43.951Z,12.75
2022-12-18T01:30:10.814Z,13.02
2022-12-18T01:32:37.655Z,13.18
2022-12-18T01:35:04.513Z,13.55
2022-12-18T01:37:31.145Z,13.77
2022-12-18T01:39:57.785Z,12.88
2022-12-18T01:42:24.456Z,12.68
2022-12-18T01:45:02.271Z,12.60
2022-12-18T01:47:28.891Z,12.15
2022-12-18T01:49:56.175Z,12.00
2022-12-18T01:52:23.154Z,12.35
2022-12-18T01:54:51.608Z,12.07
2022-12-18T01:57:19.630Z,12.75
2022-12-18T01:59:48.779Z,13.60
2022-12-18T02:02:16.746Z,12.80
2022-12-18T02:04:49.431Z,12.27
2022-12-18T02:07:21.580Z,14.48
2022-12-18T02:10:03.179Z,13.88
2022-12-18T02:12:40.743Z,12.82
2022-12-18T02:15:19.917Z,14.25
2022-12-18T02:17:56.505Z,15.95
2022-12-18T02:20:23.067Z,17.23
2022-12-18T02:23:00.609Z,14.63
2022-12-18T02:25:27.170Z,16.00
2022-12-18T02:27:55.455Z,14.88
2022-12-18T02:30:22.643Z,17.20
2022-12-18T02:32:52.128Z,15.30
2022-12-18T02:35:24.911Z,14.85
2022-12-18T02:37:54.383Z,15.55
2022-12-18T02:40:21.932Z,15.20
2022-12-18T02:42:49.029Z,15.15
2022-12-18T02:45:18.653Z,15.23
2022-12-18T02:47:48.278Z,13.90
2022-12-18T02:50:21.534Z,16.02
2022-12-18T02:53:02.260Z,17.55
2022-12-18T02:55:32.218Z,18.05
2022-12-18T02:58:06.625Z,18.05
2022-12-18T03:00:42.556Z,17.67
2022-12-18T03:03:19.733Z,17.88
2022-12-18T03:05:52.858Z,19.02
2022-12-18T03:08:25.024Z,17.00
2022-12-18T03:10:59.131Z,17.52
2022-12-18T03:13:37.895Z,17.08
2022-12-18T03:16:07.066Z,16.60
2022-12-18T03:18:36.344Z,16.08
2022-12-18T03:21:05.802Z,17.25
2022-12-18T03:23:41.645Z,17.27
2022-12-18T03:26:11.341Z,16.45
2022-12-18T03:28:43.196Z,16.83
2022-12-18T03:31:11.187Z,16.30
2022-12-18T03:33:43.439Z,15.43
2022-12-18T03:36:10.082Z,15.55
2022-12-18T03:38:38.092Z,16.13
2022-12-18T03:41:25.839Z,16.17
2022-12-18T03:44:43.788Z,16.50
2022-12-18T03:47:20.782Z,16.13
2022-12-18T03:50:09.580Z,16.67
2022-12-18T03:52:43.887Z,16.67
2022-12-18T03:55:10.923Z,16.45
2022-12-18T03:57:39.727Z,16.40
2022-12-18T04:00:08.378Z,16.40
2022-12-18T04:02:44.411Z,15.63
2022-12-18T04:05:14.067Z,17.30
2022-12-18T04:07:43.104Z,16.63
2022-12-18T04:10:14.895Z,16.13
2022-12-18T04:12:41.785Z,16.33
2022-12-18T04:15:12.291Z,16.42
2022-12-18T04:17:39.923Z,17.02
2022-12-18T04:20:08.210Z,14.82
2022-12-18T04:22:36.609Z,16.25
2022-12-18T04:25:03.777Z,17.92
2022-12-18T04:27:36.930Z,16.90
2022-12-18T04:30:05.543Z,16.73
2022-12-18T04:32:34.241Z,16.67
2022-12-18T04:35:01.220Z,17.52
2022-12-18T04:37:27.834Z,16.23
2022-12-18T04:39:55.057Z,16.88
2022-12-18T04:42:29.890Z,16.45
2022-12-18T04:44:56.493Z,16.95
2022-12-18T04:47:23.114Z,16.38
2022-12-18T04:49:49.715Z,15.43
2022-12-18T04:52:16.317Z,16.95
2022-12-18T04:54:43.051Z,16.38
2022-12-18T04:57:09.630Z,17.63
2022-12-18T04:59:36.219Z,17.00
2022-12-18T05:02:02.860Z,16.85
2022-12-18T05:04:29.579Z,17.13
2022-12-18T05:06:56.189Z,13.88
2022-12-18T05:09:22.893Z,18.15
2022-12-18T05:11:49.465Z,16.63
2022-12-18T05:14:16.421Z,16.80
2022-12-18T05:16:43.208Z,16.88
2022-12-18T05:19:10.638Z,17.50
2022-12-18T05:21:37.762Z,18.13
2022-12-18T05:24:04.598Z,18.02
2022-12-18T05:26:31.216Z,17.13
2022-12-18T05:28:57.955Z,17.08
2022-12-18T05:31:24.603Z,17.17
2022-12-18T05:33:51.239Z,18.45
2022-12-18T05:36:17.803Z,19.10
2022-12-18T05:38:44.686Z,17.88
2022-12-18T05:41:11.329Z,20.23
2022-12-18T05:43:39.321Z,17.83
2022-12-18T05:46:07.265Z,20.65
2022-12-18T05:48:34.070Z,20.00
2022-12-18T05:51:05.958Z,17.77
2022-12-18T05:53:32.865Z,16.95
2022-12-18T05:56:03.588Z,16.75
2022-12-18T05:58:30.460Z,15.93
2022-12-18T06:00:57.162Z,16.98
2022-12-18T06:03:25.153Z,14.13
2022-12-18T06:05:54.466Z,15.63
2022-12-18T06:08:21.046Z,16.88
2022-12-18T06:10:50.682Z,15.18
2022-12-18T06:13:17.255Z,17.20
2022-12-18T06:15:43.894Z,16.25
2022-12-18T06:18:10.514Z,16.58
2022-12-18T06:20:38.117Z,15.23
2022-12-18T06:23:04.771Z,15.90
2022-12-18T06:25:31.411Z,17.33
2022-12-18T06:27:57.995Z,16.45
2022-12-18T06:30:24.637Z,16.92
2022-12-18T06:32:56.333Z,16.17
2022-12-18T06:35:23.822Z,15.30
2022-12-18T06:37:50.735Z,15.65
2022-12-18T06:40:17.546Z,15.05
2022-12-18T06:42:44.130Z,15.85
2022-12-18T06:45:10.942Z,15.98
2022-12-18T06:47:37.534Z,16.80
2022-12-18T06:50:04.286Z,17.30
2022-12-18T06:52:32.640Z,16.70
2022-12-18T06:54:59.203Z,15.07
2022-12-18T06:57:25.818Z,15.50
2022-12-18T06:59:52.965Z,17.00
2022-12-18T07:02:19.693Z,17.10
2022-12-18T07:04:46.403Z,17.77
2022-12-18T07:07:18.878Z,14.13
2022-12-18T07:09:45.523Z,16.55
2022-12-18T07:12:12.054Z,15.82
2022-12-18T07:14:38.697Z,16.83
2022-12-18T07:17:05.454Z,15.85
2022-12-18T07:19:33.193Z,15.85
2022-12-18T07:21:59.784Z,16.55
2022-12-18T07:24:26.445Z,17.02
2022-12-18T07:26:53.189Z,17.20
2022-12-18T07:29:19.850Z,17.63
2022-12-18T07:31:46.567Z,16.60
2022-12-18T07:34:14.117Z,17.27
2022-12-18T07:36:40.741Z,16.17
2022-12-18T07:39:07.826Z,15.38
2022-12-18T07:41:34.474Z,16.73
2022-12-18T07:44:12.206Z,16.08
2022-12-18T07:46:38.958Z,17.63
2022-12-18T07:49:05.547Z,13.98
2022-12-18T07:51:32.116Z,14.43
2022-12-18T07:53:58.864Z,14.60
2022-12-18T07:56:27.633Z,16.85
2022-12-18T07:58:55.355Z,17.00
2022-12-18T08:01:22.107Z,18.10
2022-12-18T08:03:48.884Z,15.63
2022-12-18T08:06:17.471Z,15.90
2022-12-18T08:08:44.201Z,14.93
2022-12-18T08:11:10.869Z,15.35
2022-12-18T08:13:37.896Z,16.88
2022-12-18T08:16:07.206Z,17.67
2022-12-18T08:18:34.266Z,17.58
2022-12-18T08:21:11.364Z,17.45
2022-12-18T08:23:42.611Z,17.47
2022-12-18T08:26:10.330Z,17.17
2022-12-18T08:28:37.129Z,16.17
2022-12-18T08:31:04.043Z,17.23
2022-12-18T08:33:31.348Z,14.90
2022-12-18T08:35:59.398Z,16.60
2022-12-18T08:38:26.064Z,17.87
2022-12-18T08:41:01.939Z,16.03
2022-12-18T08:43:47.351Z,13.00
2022-12-18T08:46:17.747Z,16.60
2022-12-18T08:48:44.722Z,15.17
2022-12-18T08:51:11.611Z,14.93
2022-12-18T08:53:39.060Z,14.90
2022-12-18T08:56:06.426Z,16.17
2022-12-18T08:58:33.161Z,16.10
2022-12-18T09:01:06.698Z,15.80
2022-12-18T09:03:34.109Z,15.57
2022-12-18T09:06:00.730Z,15.97
2022-12-18T09:08:27.528Z,15.43
2022-12-18T09:10:54.238Z,13.70
2022-12-18T09:13:20.908Z,16.07
2022-12-18T09:15:51.746Z,16.07
2022-12-18T09:18:19.124Z,14.00
2022-12-18T09:20:46.185Z,14.87
2022-12-18T09:23:13.202Z,15.80
2022-12-18T09:25:40.006Z,11.97
2022-12-18T09:28:10.302Z,14.50
2022-12-18T09:30:40.720Z,15.87
2022-12-18T09:33:07.333Z,13.93
2022-12-18T09:35:36.730Z,15.53
2022-12-18T09:38:06.443Z,14.53
2022-12-18T09:40:35.914Z,12.57
2022-12-18T09:43:04.730Z,15.70
2022-12-18T09:45:47.218Z,14.00
2022-12-18T09:48:25.978Z,15.00
2022-12-18T09:50:56.707Z,15.07
2022-12-18T09:53:25.762Z,13.83
2022-12-18T09:55:53.183Z,16.03
2022-12-18T09:58:29.359Z,14.33
2022-12-18T10:00:56.472Z,15.13
2022-12-18T10:03:23.358Z,14.97
2022-12-18T10:06:02.821Z,14.23
2022-12-18T10:08:44.491Z,15.87
2022-12-18T10:11:23.110Z,15.57
2022-12-18T10:14:11.748Z,14.50
2022-12-18T10:16:44.412Z,13.17
2022-12-18T10:19:22.726Z,13.90
2022-12-18T10:21:49.775Z,13.53
2022-12-18T10:24:30.226Z,14.37
2022-12-18T10:27:00.770Z,14.67
2022-12-18T10:29:28.492Z,14.03
2022-12-18T10:31:57.138Z,14.40
2022-12-18T10:34:25.288Z,14.67
2022-12-18T10:36:53.094Z,15.03
2022-12-18T10:39:29.749Z,14.77
2022-12-18T10:42:10.785Z,14.83
2022-12-18T10:44:37.436Z,14.37
2022-12-18T10:47:10.103Z,14.93
2022-12-18T10:49:41.701Z,14.07
2022-12-18T10:52:13.466Z,13.73
2022-12-18T10:54:40.113Z,14.17
2022-12-18T10:57:17.565Z,14.27
2022-12-18T10:59:54.588Z,14.50
2022-12-18T11:02:29.194Z,14.43
2022-12-18T11:04:59.381Z,13.77
2022-12-18T11:07:25.999Z,13.33
2022-12-18T11:10:02.116Z,14.47
2022-12-18T11:12:30.040Z,12.90
2022-12-18T11:15:01.113Z,12.17
2022-12-18T11:17:27.754Z,14.00
2022-12-18T11:19:55.449Z,13.57
2022-12-18T11:22:29.840Z,13.80
2022-12-18T11:25:30.085Z,13.53
2022-12-18T11:28:02.251Z,13.33
2022-12-18T11:30:28.968Z,13.17
2022-12-18T11:33:11.319Z,13.13
2022-12-18T11:35:43.644Z,12.67
2022-12-18T11:38:48.904Z,12.17
2022-12-18T11:41:46.528Z,13.97
2022-12-18T11:44:15.915Z,14.43
2022-12-18T11:46:52.393Z,13.77
2022-12-18T11:49:26.664Z,13.70
2022-12-18T11:51:56.520Z,13.40
2022-12-18T11:54:23.189Z,13.20
2022-12-18T11:57:10.013Z,12.40
2022-12-18T11:59:43.584Z,14.03
2022-12-18T12:02:21.832Z,12.57
2022-12-18T12:04:48.727Z,13.57
2022-12-18T12:07:21.722Z,12.93
2022-12-18T12:09:48.419Z,13.30
2022-12-18T12:12:57.054Z,11.77
2022-12-18T12:15:44.158Z,13.20
2022-12-18T12:18:29.400Z,12.30
2022-12-18T12:21:16.167Z,11.93
2022-12-18T12:23:49.171Z,13.33
2022-12-18T12:26:41.641Z,12.87
2022-12-18T12:29:21.119Z,12.83
2022-12-18T12:32:06.163Z,13.67
2022-12-18T12:35:00.258Z,13.90
2022-12-18T12:37:48.278Z,13.27
2022-12-18T12:40:53.431Z,12.23
2022-12-18T12:43:25.573Z,12.90
2022-12-18T12:45:55.758Z,12.23
2022-12-18T12:48:51.966Z,13.80
2022-12-18T12:51:29.753Z,13.00
2022-12-18T12:53:58.517Z,12.40
2022-12-18T12:56:27.178Z,14.03
2022-12-18T12:59:02.669Z,13.93
2022-12-18T13:01:33.662Z,13.60
2022-12-18T13:04:23.781Z,12.97
2022-12-18T13:07:11.434Z,13.33
2022-12-18T13:09:59.272Z,14.70
2022-12-18T13:12:44.446Z,13.30
2022-12-18T13:15:22.204Z,12.27
2022-12-18T13:17:48.867Z,13.10
2022-12-18T13:20:17.157Z,12.70
2022-12-18T13:22:48.626Z,14.23
2022-12-18T13:25:34.255Z,13.00
2022-12-18T13:28:02.769Z,12.10
2022-12-18T13:30:29.759Z,13.43
2022-12-18T13:33:14.850Z,13.70
2022-12-18T13:35:43.065Z,13.00
2022-12-18T13:38:25.282Z,14.67
2022-12-18T13:40:51.845Z,14.77
2022-12-18T13:43:21.379Z,12.63
2022-12-18T13:45:50.841Z,13.87
2022-12-18T13:48:23.124Z,14.50
2022-12-18T13:50:54.221Z,13.90
2022-12-18T13:53:23.934Z,13.93
2022-12-18T13:55:52.599Z,14.10
2022-12-18T13:58:19.458Z,15.30
2022-12-18T14:00:46.334Z,13.57
2022-12-18T14:03:27.461Z,14.23
2022-12-18T14:05:56.911Z,13.47
2022-12-18T14:08:24.360Z,14.77
2022-12-18T14:10:52.151Z,13.00
2022-12-18T14:13:27.917Z,14.13
2022-12-18T14:15:54.894Z,14.60
2022-12-18T14:18:43.182Z,14.23
2022-12-18T14:21:17.967Z,14.07
2022-12-18T14:23:45.458Z,12.47
2022-12-18T14:26:28.158Z,11.77
2022-12-18T14:28:55.668Z,13.87
2022-12-18T14:31:23.482Z,14.10
2022-12-18T14:33:50.762Z,13.90
2022-12-18T14:36:37.764Z,15.60
2022-12-18T14:39:04.388Z,14.70
2022-12-18T14:41:31.139Z,13.50
2022-12-18T14:44:06.018Z,14.80
2022-12-18T14:46:46.830Z,14.13
2022-12-18T14:49:22.437Z,13.80
2022-12-18T14:51:50.728Z,14.67
2022-12-18T14:54:18.481Z,13.90
2022-12-18T14:56:46.751Z,14.57
2022-12-18T14:59:23.985Z,14.73
2022-12-18T15:01:59.892Z,15.23
2022-12-18T15:04:37.680Z,16.60
2022-12-18T15:07:13.321Z,14.37
2022-12-18T15:09:41.152Z,14.87
2022-12-18T15:12:30.072Z,16.33
2022-12-18T15:14:56.677Z,15.17
2022-12-18T15:17:24.328Z,14.67
2022-12-18T15:19:54.005Z,15.00
2022-12-18T15:22:23.606Z,15.30
2022-12-18T15:24:50.597Z,14.40
2022-12-18T15:27:22.474Z,16.37
2022-12-18T15:30:02.799Z,14.97
2022-12-18T15:32:29.545Z,16.60
2022-12-18T15:35:14.661Z,15.27
2022-12-18T15:37:41.754Z,15.60
2022-12-18T15:40:12.720Z,16.10
2022-12-18T15:42:58.254Z,17.70
2022-12-18T15:45:25.003Z,17.33
2022-12-18T15:47:51.905Z,16.40
2022-12-18T15:50:18.609Z,16.77
2022-12-18T15:52:46.224Z,16.03
2022-12-18T15:55:36.268Z,15.07
2022-12-18T15:58:04.752Z,15.43
2022-12-18T16:00:31.531Z,17.80
2022-12-18T16:02:58.320Z,16.73
2022-12-18T16:05:25.434Z,16.53
2022-12-18T16:07:52.196Z,17.70
2022-12-18T16:10:18.934Z,16.50
2022-12-18T16:12:45.840Z,16.40
2022-12-18T16:15:15.870Z,17.97
2022-12-18T16:17:44.496Z,17.93
2022-12-18T16:20:15.932Z,18.93
2022-12-18T16:22:45.592Z,19.23
2022-12-18T16:25:20.176Z,20.27
2022-12-18T16:27:49.957Z,16.60
2022-12-18T16:30:22.143Z,19.73
2022-12-18T16:32:49.291Z,17.83
2022-12-18T16:35:16.953Z,18.73
2022-12-18T16:37:43.874Z,19.47
2022-12-18T16:40:11.730Z,18.83
2022-12-18T16:42:39.327Z,19.03
2022-12-18T16:45:06.866Z,19.23
2022-12-18T16:47:33.848Z,18.47
2022-12-18T16:50:00.653Z,17.63
2022-12-18T16:52:27.756Z,18.20
2022-12-18T16:54:54.565Z,17.03
2022-12-18T16:57:21.605Z,18.97
2022-12-18T16:59:52.172Z,18.40
2022-12-18T17:02:22.200Z,17.53
2022-12-18T17:04:50.898Z,18.43
2022-12-18T17:07:17.570Z,17.83
2022-12-18T17:09:44.316Z,19.07
2022-12-18T17:12:11.024Z,12.23
2022-12-18T17:14:37.758Z,17.90
2022-12-18T17:17:21.912Z,18.47
2022-12-18T17:19:49.926Z,17.93
2022-12-18T17:22:16.666Z,17.37
2022-12-18T17:24:43.288Z,18.40
2022-12-18T17:27:09.888Z,17.17
2022-12-18T17:29:36.556Z,18.73
2022-12-18T17:32:03.435Z,18.17
2022-12-18T17:34:30.498Z,19.00
2022-12-18T17:36:57.779Z,20.90
2022-12-18T17:39:24.677Z,18.87
2022-12-18T17:41:51.560Z,20.20
2022-12-18T17:44:18.410Z,18.33
2022-12-18T17:46:46.339Z,18.77
2022-12-18T17:49:13.184Z,18.30
2022-12-18T17:51:42.280Z,19.17
2022-12-18T17:54:09.369Z,19.03
2022-12-18T17:56:36.072Z,21.77
2022-12-18T17:59:02.845Z,20.83
2022-12-18T18:01:29.546Z,21.43
2022-12-18T18:03:56.479Z,20.77
2022-12-18T18:06:23.436Z,18.80
2022-12-18T18:08:50.715Z,18.50
2022-12-18T18:11:37.325Z,18.00
2022-12-18T18:14:06.166Z,17.37
2022-12-18T18:16:34.972Z,18.27
2022-12-18T18:19:02.976Z,18.43
2022-12-18T18:21:29.704Z,18.27
2022-12-18T18:23:59.215Z,17.73
2022-12-18T18:26:29.300Z,18.20
2022-12-18T18:28:57.140Z,18.93
2022-12-18T18:31:23.998Z,19.13
2022-12-18T18:33:51.456Z,17.10
2022-12-18T18:36:18.072Z,19.37
2022-12-18T18:38:48.361Z,16.90
2022-12-18T18:41:15.698Z,17.73
2022-12-18T18:43:42.814Z,17.77
2022-12-18T18:46:11.335Z,18.73
2022-12-18T18:48:38.014Z,18.20
2022-12-18T18:51:07.340Z,17.87
2022-12-18T18:53:38.438Z,17.93
2022-12-18T18:56:40.844Z,17.47
2022-12-18T18:58:52.616Z,18.00
2022-12-18T19:01:20.234Z,18.47
2022-12-18T19:03:48.029Z,20.20
2022-12-18T19:06:19.745Z,19.00
2022-12-18T19:08:47.121Z,18.43
2022-12-18T19:11:36.234Z,18.43
2022-12-18T19:14:04.306Z,19.47
2022-12-18T19:16:32.338Z,20.00
2022-12-18T19:19:01.840Z,18.73
2022-12-18T19:21:29.103Z,18.47
2022-12-18T19:23:58.427Z,19.70
2022-12-18T19:26:27.905Z,19.90
2022-12-18T19:29:00.183Z,18.70
2022-12-18T19:31:31.796Z,16.70
2022-12-18T19:34:01.858Z,17.47
2022-12-18T19:36:29.153Z,18.23
2022-12-18T19:38:57.520Z,18.23
2022-12-18T19:41:25.568Z,18.57
2022-12-18T19:43:52.854Z,18.00
2022-12-18T19:46:20.802Z,16.47
2022-12-18T19:48:48.354Z,15.53
2022-12-18T19:51:16.651Z,16.67
2022-12-18T19:53:43.390Z,16.40
2022-12-18T19:56:11.144Z,15.87
2022-12-18T19:58:38.553Z,17.60
2022-12-18T20:01:06.044Z,16.10
2022-12-18T20:03:37.620Z,18.03
2022-12-18T20:06:33.980Z,18.37
2022-12-18T20:09:06.862Z,18.17
2022-12-18T20:11:38.398Z,17.93
2022-12-18T20:14:08.569Z,18.87
2022-12-18T20:16:35.597Z,17.93
2022-12-18T20:19:02.386Z,18.10
2022-12-18T20:21:29.477Z,17.90
2022-12-18T20:23:56.089Z,18.10
2022-12-18T20:26:23.125Z,20.33
2022-12-18T20:28:49.751Z,18.67
2022-12-18T20:31:16.483Z,18.73
2022-12-18T20:33:43.590Z,18.63
2022-12-18T20:36:15.322Z,18.77
2022-12-18T20:38:43.194Z,19.13
2022-12-18T20:41:15.408Z,18.30
2022-12-18T20:43:42.765Z,18.83
2022-12-18T20:46:10.723Z,19.90
2022-12-18T20:48:40.587Z,19.80
2022-12-18T20:51:34.995Z,19.00
2022-12-18T20:54:01.902Z,18.73
2022-12-18T20:56:30.790Z,20.30
2022-12-18T20:58:58.180Z,19.47
2022-12-18T21:01:25.652Z,19.90
2022-12-18T21:03:52.464Z,19.63
2022-12-18T21:06:21.456Z,21.17
2022-12-18T21:08:48.479Z,20.70
2022-12-18T21:11:36.150Z,21.03
2022-12-18T21:14:03.762Z,20.30
2022-12-18T21:16:30.444Z,22.07
2022-12-18T21:18:57.104Z,20.27
2022-12-18T21:21:26.964Z,19.40
2022-12-18T21:23:54.347Z,19.77
2022-12-18T21:26:20.909Z,21.27
2022-12-18T21:28:48.170Z,20.67
2022-12-18T21:31:15.144Z,21.67
2022-12-18T21:33:41.869Z,20.40
2022-12-18T21:36:08.742Z,21.93
2022-12-18T21:38:36.129Z,22.47
2022-12-18T21:41:09.845Z,22.50
2022-12-18T21:43:58.201Z,22.97
2022-12-18T21:46:25.114Z,23.20
2022-12-18T21:48:51.768Z,21.90
2022-12-18T21:51:18.555Z,21.67
2022-12-18T21:53:45.226Z,23.07
2022-12-18T21:56:13.831Z,22.53
2022-12-18T21:58:40.428Z,22.03
2022-12-18T22:01:23.869Z,22.67
2022-12-18T22:03:51.207Z,23.73
2022-12-18T22:06:18.054Z,22.53
2022-12-18T22:08:44.734Z,23.07
2022-12-18T22:11:12.344Z,22.90
2022-12-18T22:13:39.266Z,23.43
2022-12-18T22:16:06.031Z,22.87
2022-12-18T22:18:32.647Z,21.90
2022-12-18T22:21:03.415Z,22.40
2022-12-18T22:23:30.321Z,22.03
2022-12-18T22:25:57.386Z,24.00
2022-12-18T22:28:42.795Z,23.07
2022-12-18T22:31:09.796Z,21.27
2022-12-18T22:33:36.357Z,22.30
2022-12-18T22:36:06.909Z,22.23
2022-12-18T22:38:34.086Z,22.67
2022-12-18T22:41:00.806Z,23.07
2022-12-18T22:43:27.573Z,24.47
2022-12-18T22:45:54.327Z,22.17
2022-12-18T22:48:21.265Z,23.03
2022-12-18T22:50:48.020Z,23.33
2022-12-18T22:53:16.466Z,22.70
2022-12-18T22:55:43.180Z,23.33
2022-12-18T22:58:09.906Z,22.50
2022-12-18T23:00:36.483Z,22.50
2022-12-18T23:03:03.285Z,22.57
2022-12-18T23:05:30.868Z,22.07
2022-12-18T23:07:57.968Z,22.17
2022-12-18T23:10:24.718Z,22.73
2022-12-18T23:12:51.341Z,22.00
2022-12-18T23:15:26.017Z,22.40
2022-12-18T23:17:55.241Z,21.30
2022-12-18T23:20:21.901Z,21.53
2022-12-18T23:22:48.660Z,20.73
2022-12-18T23:25:15.281Z,20.60
2022-12-18T23:27:41.849Z,21.50
2022-12-18T23:30:08.733Z,20.77
2022-12-18T23:32:38.764Z,21.60
2022-12-18T23:35:05.557Z,20.77
2022-12-18T23:37:57.501Z,20.93
2022-12-18T23:40:20.558Z,19.73
2022-12-18T23:42:47.198Z,20.07
2022-12-18T23:45:18.072Z,20.17
2022-12-18T23:47:45.008Z,19.53
2022-12-18T23:50:13.850Z,20.30
2022-12-18T23:52:40.484Z,19.77
2022-12-18T23:55:07.285Z,18.97
2022-12-18T23:57:33.926Z,19.77
